createdAt,value
2023-04-24T00:07:27.830Z,6.30
2023-04-24T00:11:33.164Z,6.20
2023-04-24T00:15:38.410Z,8.40
2023-04-24T00:23:48.040Z,9.20
2023-04-24T00:31:56.899Z,9.10
2023-04-24T00:40:07.252Z,8.50
2023-04-24T00:44:12.522Z,5.90
2023-04-24T00:52:21.801Z,8.90
2023-04-24T00:56:27.136Z,7.60
2023-04-24T01:08:40.853Z,7.60
2023-04-24T01:12:46.131Z,9.30
2023-04-24T01:16:51.339Z,9.20
2023-04-24T01:20:58.950Z,8.40
2023-04-24T01:25:04.477Z,6.70
2023-04-24T01:29:09.880Z,8.90
2023-04-24T01:37:18.903Z,8.10
2023-04-24T01:45:27.685Z,9.40
2023-04-24T01:49:33.119Z,9.30
2023-04-24T01:53:38.356Z,7.90
2023-04-24T01:57:43.519Z,8.80
2023-04-24T02:01:48.801Z,8.00
2023-04-24T02:05:54.034Z,9.40
2023-04-24T02:09:59.357Z,7.70
2023-04-24T02:18:08.506Z,9.00
2023-04-24T02:22:13.785Z,8.50
2023-04-24T02:26:19.610Z,11.70
2023-04-24T02:30:24.868Z,7.90
2023-04-24T02:34:30.124Z,8.70
2023-04-24T02:38:35.355Z,11.20
2023-04-24T02:42:40.641Z,9.50
2023-04-24T02:50:49.673Z,10.10
2023-04-24T02:54:55.875Z,11.20
2023-04-24T02:59:01.100Z,9.80
2023-04-24T03:03:06.741Z,8.60
2023-04-24T03:07:12.110Z,10.60
2023-04-24T03:11:17.350Z,10.90
2023-04-24T03:15:22.718Z,8.80
2023-04-24T03:19:28.375Z,10.50
2023-04-24T03:23:33.611Z,13.00
2023-04-24T03:27:40.317Z,9.00
2023-04-24T03:31:45.733Z,9.50
2023-04-24T03:35:50.945Z,8.70
2023-04-24T03:39:56.225Z,10.00
2023-04-24T03:44:01.490Z,8.80
2023-04-24T03:48:10.268Z,7.40
2023-04-24T03:52:15.706Z,8.50
2023-04-24T03:56:33.893Z,9.40
2023-04-24T04:00:41.379Z,9.70
2023-04-24T04:05:10.497Z,10.30
2023-04-24T04:09:39.508Z,12.40
2023-04-24T04:18:29.641Z,10.50
2023-04-24T04:22:34.873Z,8.80
2023-04-24T04:26:41.657Z,7.40
2023-04-24T04:31:10.608Z,8.10
2023-04-24T04:35:41.836Z,6.80
2023-04-24T04:39:55.748Z,8.60
2023-04-24T04:44:00.983Z,9.70
2023-04-24T04:52:39.345Z,12.90
2023-04-24T04:56:53.392Z,8.00
2023-04-24T05:00:58.688Z,11.20
2023-04-24T05:05:18.157Z,17.00
2023-04-24T05:09:23.379Z,11.10
2023-04-24T05:13:43.526Z,10.80
2023-04-24T05:17:48.766Z,9.30
2023-04-24T05:21:54.067Z,13.40
2023-04-24T05:26:07.522Z,15.10
2023-04-24T05:30:13.901Z,10.20
2023-04-24T05:34:19.147Z,10.30
2023-04-24T05:38:27.461Z,13.20
2023-04-24T05:42:32.700Z,10.20
2023-04-24T05:46:37.990Z,19.50
2023-04-24T05:51:12.453Z,13.60
2023-04-24T05:55:21.420Z,16.00
2023-04-24T05:59:26.842Z,24.00
2023-04-24T06:03:32.224Z,12.80
2023-04-24T06:12:17.639Z,18.20
2023-04-24T06:16:22.947Z,18.00
2023-04-24T06:20:28.389Z,12.30
2023-04-24T06:24:42.009Z,14.60
2023-04-24T06:28:47.257Z,16.80
2023-04-24T06:32:53.109Z,13.60
2023-04-24T06:37:21.820Z,9.10
2023-04-24T06:41:34.706Z,16.50
2023-04-24T06:45:57.084Z,14.50
2023-04-24T06:50:02.323Z,9.80
2023-04-24T06:54:07.699Z,13.10
2023-04-24T06:58:28.733Z,12.80
2023-04-24T07:02:34.036Z,11.50
2023-04-24T07:06:40.216Z,12.00
2023-04-24T07:10:53.973Z,14.20
2023-04-24T07:14:59.193Z,15.70
2023-04-24T07:19:04.496Z,12.60
2023-04-24T07:23:13.347Z,17.60
2023-04-24T07:27:18.623Z,12.20
2023-04-24T07:31:23.934Z,17.00
2023-04-24T07:35:55.197Z,10.70
2023-04-24T07:40:29.509Z,12.50
2023-04-24T07:44:38.251Z,11.00
2023-04-24T07:48:43.616Z,10.60
2023-04-24T07:52:48.912Z,21.10
2023-04-24T07:57:17.805Z,12.90
2023-04-24T08:01:46.949Z,12.60
2023-04-24T08:10:45.930Z,9.30
2023-04-24T08:19:09.917Z,11.30
2023-04-24T08:23:15.140Z,9.40
2023-04-24T08:27:43.769Z,10.30
2023-04-24T08:36:43.582Z,13.90
2023-04-24T08:41:15.567Z,14.40
2023-04-24T08:45:20.968Z,13.60
2023-04-24T08:49:52.358Z,11.40
2023-04-24T08:54:06.908Z,12.10
2023-04-24T08:58:12.418Z,11.90
2023-04-24T09:02:44.299Z,11.80
2023-04-24T09:07:14.443Z,9.30
2023-04-24T09:16:03.988Z,10.70
2023-04-24T09:20:43.800Z,12.10
2023-04-24T09:25:10.069Z,9.90
2023-04-24T09:29:41.738Z,10.30
2023-04-24T09:34:13.430Z,9.90
2023-04-24T09:38:34.342Z,8.00
2023-04-24T09:51:57.280Z,6.60
2023-04-24T10:00:29.398Z,9.80
2023-04-24T10:04:34.725Z,8.40
2023-04-24T10:09:06.498Z,8.90
2023-04-24T10:13:20.399Z,7.90
2023-04-24T10:17:26.816Z,11.80
2023-04-24T10:21:32.463Z,7.40
2023-04-24T10:25:38.101Z,9.50
2023-04-24T10:29:53.666Z,10.80
2023-04-24T10:42:31.831Z,7.70
2023-04-24T10:46:58.015Z,7.40
2023-04-24T10:51:28.518Z,8.00
2023-04-24T10:59:47.449Z,6.80
2023-04-24T11:03:57.696Z,7.70
2023-04-24T11:08:26.988Z,7.80
2023-04-24T11:12:39.855Z,5.70
2023-04-24T11:17:09.489Z,6.50
2023-04-24T11:21:15.285Z,7.70
2023-04-24T11:25:20.505Z,10.30
2023-04-24T11:29:34.498Z,7.80
2023-04-24T11:33:39.736Z,8.10
2023-04-24T11:42:09.055Z,7.70
2023-04-24T11:46:40.771Z,8.80
2023-04-24T11:51:05.136Z,7.20
2023-04-24T11:55:27.349Z,6.00
2023-04-24T11:59:37.203Z,9.30
2023-04-24T12:03:49.351Z,6.60
2023-04-24T12:13:04.258Z,8.10
2023-04-24T12:17:15.707Z,5.30
2023-04-24T12:21:23.090Z,5.40
2023-04-24T12:25:29.208Z,5.90
2023-04-24T12:29:55.631Z,6.30
2023-04-24T12:38:47.532Z,6.90
2023-04-24T12:42:54.071Z,6.80
2023-04-24T12:47:14.579Z,5.60
2023-04-24T12:51:19.859Z,6.60
2023-04-24T12:55:25.162Z,5.30
2023-04-24T12:59:56.939Z,6.10
2023-04-24T13:04:11.466Z,9.40
2023-04-24T13:08:16.838Z,13.70
2023-04-24T13:12:36.787Z,8.10
2023-04-24T13:16:42.234Z,10.80
2023-04-24T13:25:02.419Z,9.40
2023-04-24T13:29:07.626Z,9.20
2023-04-24T13:33:36.349Z,10.00
2023-04-24T13:37:57.781Z,6.30
2023-04-24T13:42:04.939Z,8.60
2023-04-24T13:46:12.508Z,4.80
2023-04-24T13:50:17.822Z,4.60
2023-04-24T13:54:24.292Z,6.00
2023-04-24T13:58:39.065Z,5.90
2023-04-24T14:02:44.532Z,6.10
2023-04-24T14:06:50.183Z,5.00
2023-04-24T14:11:16.663Z,8.70
2023-04-24T14:24:10.169Z,5.50
2023-04-24T14:28:15.760Z,5.00
2023-04-24T14:32:33.064Z,4.90
2023-04-24T14:36:38.696Z,5.80
2023-04-24T14:41:07.936Z,7.10
2023-04-24T14:49:28.606Z,5.20
2023-04-24T14:53:33.865Z,5.20
2023-04-24T15:02:35.676Z,7.40
2023-04-24T15:07:04.657Z,7.20
2023-04-24T15:24:53.914Z,6.00
2023-04-24T15:28:59.233Z,7.50
2023-04-24T15:37:18.426Z,5.10
2023-04-24T15:41:23.655Z,7.10
2023-04-24T15:45:38.458Z,6.00
2023-04-24T15:49:43.775Z,5.70
2023-04-24T15:53:49.441Z,6.10
2023-04-24T15:58:18.834Z,4.80
2023-04-24T16:02:49.209Z,6.50
2023-04-24T16:07:18.364Z,8.80
2023-04-24T16:11:49.377Z,7.30
2023-04-24T16:16:17.988Z,7.50
2023-04-24T16:25:04.988Z,5.50
2023-04-24T16:29:10.385Z,6.10
2023-04-24T16:33:16.077Z,7.30
2023-04-24T16:37:27.393Z,6.40
2023-04-24T16:41:32.760Z,9.10
2023-04-24T16:45:38.226Z,9.10
2023-04-24T16:50:07.136Z,8.20
2023-04-24T16:54:38.422Z,7.70
2023-04-24T16:58:52.259Z,4.60
2023-04-24T17:02:57.845Z,6.30
2023-04-24T17:07:03.473Z,4.70
2023-04-24T17:11:08.703Z,7.40
2023-04-24T17:15:23.267Z,7.40
2023-04-24T17:23:52.302Z,5.80
2023-04-24T17:27:57.530Z,5.70
2023-04-24T17:32:03.229Z,6.40
2023-04-24T17:36:08.840Z,6.40
2023-04-24T17:40:14.745Z,9.30
2023-04-24T17:44:20.069Z,8.60
2023-04-24T17:48:25.412Z,8.80
2023-04-24T17:52:30.684Z,12.80
2023-04-24T17:56:35.911Z,10.20
2023-04-24T18:00:41.157Z,9.00
2023-04-24T18:04:46.618Z,9.00
2023-04-24T18:08:51.982Z,8.00
2023-04-24T18:12:57.173Z,8.20
2023-04-24T18:17:02.423Z,8.00
2023-04-24T18:21:07.738Z,8.20
2023-04-24T18:25:13.345Z,9.30
2023-04-24T18:29:18.597Z,7.70
2023-04-24T18:33:23.810Z,9.20
2023-04-24T18:37:29.046Z,8.20
2023-04-24T18:41:35.361Z,8.50
2023-04-24T18:45:40.659Z,10.20
2023-04-24T18:49:46.061Z,10.20
2023-04-24T18:53:51.240Z,9.90
2023-04-24T18:57:56.487Z,9.30
2023-04-24T19:02:01.769Z,10.60
2023-04-24T19:06:07.374Z,7.30
2023-04-24T19:10:13.294Z,11.60
2023-04-24T19:14:19.411Z,10.50
2023-04-24T19:18:26.360Z,10.20
2023-04-24T19:22:31.936Z,11.10
2023-04-24T19:26:37.127Z,9.80
2023-04-24T19:30:42.518Z,11.40
2023-04-24T19:34:47.699Z,6.80
2023-04-24T19:38:52.955Z,8.00
2023-04-24T19:42:58.154Z,7.50
2023-04-24T19:47:03.585Z,7.80
2023-04-24T19:51:08.880Z,7.40
2023-04-24T19:55:14.154Z,5.80
2023-04-24T19:59:19.432Z,7.50
2023-04-24T20:03:33.014Z,7.40
2023-04-24T20:07:39.055Z,6.00
2023-04-24T20:11:45.376Z,6.70
2023-04-24T20:15:50.602Z,9.20
2023-04-24T20:19:56.085Z,9.40
2023-04-24T20:24:01.300Z,7.90
2023-04-24T20:28:06.874Z,8.00
2023-04-24T20:32:12.111Z,7.90
2023-04-24T20:36:17.340Z,9.50
2023-04-24T20:40:22.519Z,8.00
2023-04-24T20:44:27.917Z,9.10
2023-04-24T20:48:33.129Z,8.80
2023-04-24T20:52:38.392Z,9.30
2023-04-24T20:56:43.640Z,9.60
2023-04-24T21:00:48.975Z,9.10
2023-04-24T21:04:54.245Z,8.40
2023-04-24T21:08:59.653Z,9.10
2023-04-24T21:13:04.927Z,9.40
2023-04-24T21:17:10.292Z,8.30
2023-04-24T21:21:15.524Z,8.10
2023-04-24T21:25:20.757Z,8.50
2023-04-24T21:29:26.355Z,9.20
2023-04-24T21:33:31.574Z,9.80
2023-04-24T21:37:39.279Z,10.10
2023-04-24T21:41:45.516Z,7.70
2023-04-24T21:45:52.506Z,11.40
2023-04-24T21:49:57.727Z,7.40
2023-04-24T21:54:02.974Z,9.20
2023-04-24T21:58:08.290Z,7.00
2023-04-24T22:02:13.835Z,6.90
2023-04-24T22:06:19.641Z,11.30
2023-04-24T22:10:24.926Z,7.70
2023-04-24T22:14:30.145Z,11.20
2023-04-24T22:18:46.690Z,7.60
2023-04-24T22:39:07.537Z,6.70
2023-04-24T22:43:12.838Z,7.60
2023-04-24T22:47:19.786Z,7.10
2023-04-24T22:51:24.992Z,7.40
2023-04-24T22:55:31.195Z,8.50
2023-04-24T22:59:36.443Z,8.00
2023-04-24T23:03:41.832Z,8.30
2023-04-24T23:07:47.100Z,8.60
2023-04-24T23:11:52.442Z,7.80
2023-04-24T23:15:57.640Z,8.60
2023-04-24T23:20:02.919Z,8.00
2023-04-24T23:24:08.790Z,9.10
2023-04-24T23:28:13.987Z,8.90
2023-04-24T23:32:19.325Z,9.10
2023-04-24T23:36:24.953Z,9.30
2023-04-24T23:40:30.193Z,9.80
2023-04-24T23:44:35.420Z,9.30
2023-04-24T23:48:40.622Z,8.40
2023-04-24T23:52:46.192Z,8.60
2023-04-24T23:56:51.551Z,9.30
